createdAt,value
2024-02-26T00:02:19.904Z,-1.85
2024-02-26T00:04:47.412Z,-1.54
2024-02-26T00:07:14.988Z,-1.50
2024-02-26T00:09:42.678Z,-1.58
2024-02-26T00:12:10.389Z,-1.54
2024-02-26T00:14:38.199Z,-1.80
2024-02-26T00:17:05.650Z,-1.82
2024-02-26T00:19:33.549Z,-1.72
2024-02-26T00:22:01.279Z,-1.78
2024-02-26T00:24:28.837Z,-1.62
2024-02-26T00:26:56.670Z,-1.75
2024-02-26T00:29:24.665Z,-1.93
2024-02-26T00:31:52.150Z,-1.92
2024-02-26T00:34:20.116Z,-1.95
2024-02-26T00:36:48.005Z,-1.75
2024-02-26T00:39:16.624Z,-1.78
2024-02-26T00:41:44.241Z,-1.58
2024-02-26T00:44:11.937Z,-1.64
2024-02-26T00:46:39.745Z,-1.38
2024-02-26T00:49:09.448Z,-1.80
2024-02-26T00:51:37.142Z,-1.86
2024-02-26T00:54:04.681Z,-1.66
2024-02-26T00:56:32.308Z,-1.85
2024-02-26T00:59:00.170Z,-1.80
2024-02-26T01:01:27.704Z,-1.98
2024-02-26T01:03:55.308Z,-1.97
2024-02-26T01:06:23.901Z,-2.08
2024-02-26T01:08:51.893Z,-1.77
2024-02-26T01:11:19.640Z,-1.80
2024-02-26T01:13:47.477Z,-1.93
2024-02-26T01:16:17.042Z,-1.95
2024-02-26T01:18:44.661Z,-2.65
2024-02-26T01:21:12.538Z,-1.77
2024-02-26T01:23:40.327Z,-1.68
2024-02-26T01:26:08.153Z,-2.05
2024-02-26T01:28:35.748Z,-2.19
2024-02-26T01:33:34.238Z,-2.12
2024-02-26T01:36:02.285Z,-1.85
2024-02-26T01:38:30.125Z,-1.78
2024-02-26T01:40:57.631Z,-1.73
2024-02-26T01:43:25.198Z,-1.95
2024-02-26T01:45:52.780Z,-2.28
2024-02-26T01:48:20.560Z,-2.26
2024-02-26T01:50:48.444Z,-2.47
2024-02-26T01:53:17.991Z,-2.59
2024-02-26T01:55:45.646Z,-2.36
2024-02-26T01:58:15.080Z,-2.31
2024-02-26T02:00:43.558Z,-2.27
2024-02-26T02:03:11.275Z,-2.53
2024-02-26T02:05:43.750Z,-2.34
2024-02-26T02:08:15.592Z,-2.04
2024-02-26T02:10:44.081Z,-2.26
2024-02-26T02:13:11.729Z,-2.25
2024-02-26T02:15:39.265Z,-2.52
2024-02-26T02:18:07.904Z,-2.40
2024-02-26T02:20:36.522Z,-2.48
2024-02-26T02:23:05.151Z,-2.42
2024-02-26T02:25:32.683Z,-2.57
2024-02-26T02:28:00.588Z,-2.60
2024-02-26T02:30:32.604Z,-2.48
2024-02-26T02:33:00.645Z,-2.43
2024-02-26T02:35:28.343Z,-2.56
2024-02-26T02:37:59.016Z,-2.24
2024-02-26T02:40:26.782Z,-2.66
2024-02-26T02:42:54.859Z,-2.99
2024-02-26T02:45:22.376Z,-2.67
2024-02-26T02:47:50.718Z,-2.95
2024-02-26T02:50:18.482Z,-2.71
2024-02-26T02:52:46.204Z,-2.86
2024-02-26T02:55:15.472Z,-2.65
2024-02-26T02:57:43.921Z,-2.65
2024-02-26T03:00:12.456Z,-2.33
2024-02-26T03:02:40.654Z,-2.92
2024-02-26T03:05:08.929Z,-2.73
2024-02-26T03:07:36.617Z,-2.85
2024-02-26T03:10:04.594Z,-3.00
2024-02-26T03:12:33.221Z,-2.83
2024-02-26T03:15:04.048Z,-3.01
2024-02-26T03:17:33.685Z,-2.93
2024-02-26T03:20:01.768Z,-2.97
2024-02-26T03:22:29.717Z,-2.95
2024-02-26T03:24:57.081Z,-2.96
2024-02-26T03:27:25.075Z,-2.99
2024-02-26T03:29:54.081Z,-2.61
2024-02-26T03:32:22.330Z,-3.01
2024-02-26T03:34:50.023Z,-2.79
2024-02-26T03:37:18.284Z,-2.92
2024-02-26T03:39:46.299Z,-2.99
2024-02-26T03:42:13.888Z,-3.04
2024-02-26T03:44:41.370Z,-3.18
2024-02-26T03:47:09.202Z,-3.19
2024-02-26T03:49:36.847Z,-3.34
2024-02-26T03:52:04.809Z,-3.18
2024-02-26T03:54:32.367Z,-3.29
2024-02-26T03:57:00.219Z,-2.99
2024-02-26T03:59:28.113Z,-3.30
2024-02-26T04:01:55.597Z,-3.47
2024-02-26T04:04:22.987Z,-3.31
2024-02-26T04:06:50.693Z,-3.61
2024-02-26T04:09:18.408Z,-3.37
2024-02-26T04:11:46.235Z,-3.18
2024-02-26T04:14:13.889Z,-3.30
2024-02-26T04:16:41.519Z,-3.61
2024-02-26T04:19:09.516Z,-3.43
2024-02-26T04:21:37.547Z,-3.70
2024-02-26T04:24:05.585Z,-3.47
2024-02-26T04:26:33.274Z,-3.91
2024-02-26T04:29:00.950Z,-3.49
2024-02-26T04:31:28.741Z,-3.64
2024-02-26T04:33:56.481Z,-3.67
2024-02-26T04:36:24.656Z,-3.58
2024-02-26T04:38:52.667Z,-3.67
2024-02-26T04:41:20.415Z,-3.67
2024-02-26T04:43:47.912Z,-3.70
2024-02-26T04:46:16.448Z,-3.54
2024-02-26T04:48:44.380Z,-3.68
2024-02-26T04:51:11.993Z,-4.25
2024-02-26T04:53:39.633Z,-4.05
2024-02-26T04:56:07.685Z,-3.80
2024-02-26T04:58:35.759Z,-3.62
2024-02-26T05:01:04.751Z,-3.82
2024-02-26T05:03:34.731Z,-3.84
2024-02-26T05:06:05.200Z,-3.54
2024-02-26T05:08:34.912Z,-3.59
2024-02-26T05:11:03.858Z,-3.85
2024-02-26T05:13:31.479Z,-3.84
2024-02-26T05:16:01.509Z,-4.03
2024-02-26T05:18:30.048Z,-3.70
2024-02-26T05:20:58.130Z,-3.76
2024-02-26T05:23:25.845Z,-3.51
2024-02-26T05:25:53.359Z,-3.39
2024-02-26T05:28:21.969Z,-3.42
2024-02-26T05:30:49.563Z,-3.66
2024-02-26T05:33:18.924Z,-3.74
2024-02-26T05:35:47.008Z,-3.78
2024-02-26T05:38:15.563Z,-4.14
2024-02-26T05:40:44.780Z,-3.69
2024-02-26T05:43:12.987Z,-3.43
2024-02-26T05:45:40.846Z,-3.75
2024-02-26T05:48:08.860Z,-3.79
2024-02-26T05:50:36.568Z,-3.46
2024-02-26T05:53:04.347Z,-3.64
2024-02-26T05:55:31.787Z,-3.43
2024-02-26T05:57:59.533Z,-3.56
2024-02-26T06:00:27.474Z,-3.21
2024-02-26T06:02:55.217Z,-3.43
2024-02-26T06:05:22.801Z,-3.05
2024-02-26T06:07:50.426Z,-3.21
2024-02-26T06:10:18.077Z,-3.28
2024-02-26T06:12:46.139Z,-3.23
2024-02-26T06:15:14.588Z,-3.44
2024-02-26T06:17:42.564Z,-3.61
2024-02-26T06:20:14.195Z,-3.03
2024-02-26T06:22:43.509Z,-3.14
2024-02-26T06:25:11.077Z,-3.27
2024-02-26T06:27:38.931Z,-3.21
2024-02-26T06:30:07.154Z,-2.91
2024-02-26T06:32:34.709Z,-3.22
2024-02-26T06:35:03.115Z,-3.02
2024-02-26T06:37:32.203Z,-2.87
2024-02-26T06:39:59.813Z,-3.02
2024-02-26T06:42:27.779Z,-3.14
2024-02-26T06:44:55.436Z,-3.03
2024-02-26T06:47:23.183Z,-2.84
2024-02-26T06:49:51.082Z,-2.86
2024-02-26T06:52:18.887Z,-2.92
2024-02-26T06:54:48.111Z,-2.81
2024-02-26T06:57:15.778Z,-2.98
2024-02-26T06:59:47.592Z,-2.80
2024-02-26T07:02:15.902Z,-2.84
2024-02-26T07:04:43.752Z,-2.71
2024-02-26T07:07:12.096Z,-2.65
2024-02-26T07:09:39.872Z,-2.72
2024-02-26T07:12:07.635Z,-2.44
2024-02-26T07:14:35.246Z,-2.53
2024-02-26T07:17:02.718Z,-2.59
2024-02-26T07:19:30.476Z,-2.91
2024-02-26T07:21:58.075Z,-2.52
2024-02-26T07:24:25.749Z,-2.43
2024-02-26T07:26:55.959Z,-2.32
2024-02-26T07:29:23.628Z,-2.30
2024-02-26T07:31:51.208Z,-2.45
2024-02-26T07:34:19.539Z,-2.57
2024-02-26T07:36:47.142Z,-2.57
2024-02-26T07:39:16.239Z,-2.58
2024-02-26T07:41:48.087Z,-1.98
2024-02-26T07:44:15.783Z,-2.26
2024-02-26T07:46:43.271Z,-2.10
2024-02-26T07:49:10.924Z,-2.14
2024-02-26T07:51:38.615Z,-1.90
2024-02-26T07:54:06.416Z,-2.25
2024-02-26T07:56:34.084Z,-2.25
2024-02-26T07:59:01.883Z,-2.02
2024-02-26T08:01:29.793Z,-2.11
2024-02-26T08:03:57.764Z,-2.04
2024-02-26T08:06:26.380Z,-1.98
2024-02-26T08:08:56.542Z,-1.52
2024-02-26T08:11:24.065Z,-1.72
2024-02-26T08:13:51.701Z,-1.63
2024-02-26T08:16:19.747Z,-1.91
2024-02-26T08:18:47.392Z,-1.78
2024-02-26T08:21:16.304Z,-1.70
2024-02-26T08:23:45.499Z,-1.76
2024-02-26T08:26:13.209Z,-1.85
2024-02-26T08:28:40.961Z,-1.44
2024-02-26T08:31:09.512Z,-1.41
2024-02-26T08:33:37.470Z,-1.48
2024-02-26T08:36:06.697Z,-1.33
2024-02-26T08:38:36.058Z,-1.94
2024-02-26T08:41:04.253Z,-1.33
2024-02-26T08:43:31.795Z,-1.61
2024-02-26T08:45:59.332Z,-1.49
2024-02-26T08:48:27.433Z,-1.07
2024-02-26T08:50:55.528Z,-0.85
2024-02-26T08:53:27.945Z,-0.56
2024-02-26T08:56:02.787Z,-0.83
2024-02-26T08:58:30.621Z,-0.89
2024-02-26T09:00:58.480Z,-0.84
2024-02-26T09:03:27.473Z,-1.60
2024-02-26T09:05:55.702Z,-0.68
2024-02-26T09:08:23.504Z,-0.53
2024-02-26T09:10:51.247Z,-0.50
2024-02-26T09:13:20.214Z,-0.31
2024-02-26T09:15:47.836Z,-0.70
2024-02-26T09:18:16.358Z,-0.72
2024-02-26T09:20:44.192Z,-0.62
2024-02-26T09:23:11.689Z,-0.56
2024-02-26T09:25:39.639Z,-0.51
2024-02-26T09:28:07.837Z,-0.52
2024-02-26T09:30:35.491Z,-0.29
2024-02-26T09:33:03.208Z,-0.33
2024-02-26T09:35:31.722Z,-0.05
2024-02-26T09:37:59.305Z,-0.23
2024-02-26T09:40:26.898Z,-0.38
2024-02-26T09:43:06.004Z,-0.33
2024-02-26T09:45:35.903Z,-0.15
2024-02-26T09:48:06.325Z,0.00
2024-02-26T09:50:34.072Z,-0.22
2024-02-26T09:53:04.077Z,-0.23
2024-02-26T09:55:31.945Z,0.03
2024-02-26T09:58:00.632Z,0.20
2024-02-26T10:00:34.295Z,0.19
2024-02-26T10:03:06.678Z,0.10
2024-02-26T10:05:35.544Z,-0.02
2024-02-26T10:08:05.588Z,0.09
2024-02-26T10:10:35.226Z,0.16
2024-02-26T10:13:05.254Z,0.52
2024-02-26T10:15:33.019Z,0.37
2024-02-26T10:18:01.025Z,0.39
2024-02-26T10:20:29.807Z,0.39
2024-02-26T10:22:57.496Z,0.68
2024-02-26T10:25:25.096Z,0.86
2024-02-26T10:27:53.301Z,0.60
2024-02-26T10:30:23.258Z,0.61
2024-02-26T10:32:52.034Z,0.78
2024-02-26T10:35:22.179Z,0.86
2024-02-26T10:37:51.498Z,1.11
2024-02-26T10:40:19.342Z,0.92
2024-02-26T10:42:47.352Z,0.86
2024-02-26T10:45:15.389Z,0.79
2024-02-26T10:47:46.514Z,0.52
2024-02-26T10:50:18.127Z,0.80
2024-02-26T10:52:45.845Z,1.02
2024-02-26T10:55:21.429Z,0.77
2024-02-26T10:57:53.634Z,0.94
2024-02-26T11:00:21.292Z,0.87
2024-02-26T11:02:50.187Z,0.97
2024-02-26T11:05:18.671Z,1.15
2024-02-26T11:07:48.489Z,1.29
2024-02-26T11:10:16.824Z,1.13
2024-02-26T11:12:47.403Z,1.03
2024-02-26T11:15:15.629Z,1.11
2024-02-26T11:17:45.893Z,1.21
2024-02-26T11:20:15.131Z,1.26
2024-02-26T11:22:42.948Z,1.32
2024-02-26T11:25:12.605Z,1.18
2024-02-26T11:27:46.322Z,1.39
2024-02-26T11:30:17.273Z,1.31
2024-02-26T11:32:49.215Z,1.40
2024-02-26T11:35:20.063Z,1.51
2024-02-26T11:37:55.587Z,1.25
2024-02-26T11:40:27.170Z,1.39
2024-02-26T11:42:55.559Z,1.68
2024-02-26T11:45:41.499Z,1.72
2024-02-26T11:48:21.892Z,1.63
2024-02-26T11:50:54.999Z,1.67
2024-02-26T11:53:32.756Z,1.78
2024-02-26T11:56:25.752Z,1.60
2024-02-26T11:58:58.916Z,1.53
2024-02-26T12:01:40.115Z,1.69
2024-02-26T12:04:12.856Z,1.79
2024-02-26T12:06:43.780Z,2.06
2024-02-26T12:09:12.193Z,1.81
2024-02-26T12:11:40.949Z,1.81
2024-02-26T12:14:10.668Z,1.80
2024-02-26T12:16:39.397Z,2.03
2024-02-26T12:19:10.006Z,1.87
2024-02-26T12:21:43.598Z,2.08
2024-02-26T12:24:19.466Z,2.12
2024-02-26T12:26:47.178Z,2.26
2024-02-26T12:29:15.619Z,2.16
2024-02-26T12:31:44.803Z,1.98
2024-02-26T12:34:12.666Z,2.07
2024-02-26T12:36:41.611Z,2.05
2024-02-26T12:39:10.883Z,1.99
2024-02-26T12:41:40.630Z,1.79
2024-02-26T12:44:09.527Z,1.78
2024-02-26T12:46:37.084Z,1.76
2024-02-26T12:49:05.164Z,1.66
2024-02-26T12:51:32.898Z,1.53
2024-02-26T12:54:00.851Z,1.25
2024-02-26T12:56:29.629Z,1.28
2024-02-26T12:59:00.578Z,1.89
2024-02-26T13:01:29.642Z,1.63
2024-02-26T13:03:58.660Z,1.45
2024-02-26T13:06:28.866Z,1.36
2024-02-26T13:09:00.221Z,1.26
2024-02-26T13:11:30.517Z,1.41
2024-02-26T13:13:58.102Z,1.42
2024-02-26T13:16:26.555Z,1.39
2024-02-26T13:18:54.316Z,1.28
2024-02-26T13:21:25.917Z,1.01
2024-02-26T13:23:54.496Z,0.88
2024-02-26T13:26:25.310Z,0.94
2024-02-26T13:29:06.593Z,0.99
2024-02-26T13:31:44.875Z,0.88
2024-02-26T13:34:25.064Z,0.89
2024-02-26T13:36:53.021Z,0.90
2024-02-26T13:39:28.641Z,0.87
2024-02-26T13:41:56.595Z,1.01
2024-02-26T13:44:24.722Z,1.36
2024-02-26T13:46:52.362Z,0.97
2024-02-26T13:49:20.190Z,0.80
2024-02-26T13:51:47.901Z,0.92
2024-02-26T13:54:16.448Z,0.70
2024-02-26T13:56:48.458Z,0.93
2024-02-26T13:59:16.395Z,1.10
2024-02-26T14:01:43.920Z,0.76
2024-02-26T14:04:11.813Z,0.56
2024-02-26T14:06:41.000Z,0.46
2024-02-26T14:09:08.606Z,0.64
2024-02-26T14:11:36.928Z,0.81
2024-02-26T14:14:04.394Z,0.71
2024-02-26T14:16:32.845Z,0.56
2024-02-26T14:19:00.890Z,0.34
2024-02-26T14:21:28.779Z,0.47
2024-02-26T14:23:57.693Z,0.55
2024-02-26T14:26:25.370Z,0.28
2024-02-26T14:28:53.349Z,0.17
2024-02-26T14:31:21.256Z,0.10
2024-02-26T14:33:51.436Z,0.46
2024-02-26T14:36:23.627Z,0.33
2024-02-26T14:38:51.403Z,0.43
2024-02-26T14:41:19.265Z,0.31
2024-02-26T14:43:47.933Z,0.19
2024-02-26T14:46:15.621Z,0.34
2024-02-26T14:48:43.526Z,0.31
2024-02-26T14:51:11.130Z,0.25
2024-02-26T14:53:38.744Z,0.28
2024-02-26T14:56:06.442Z,0.27
2024-02-26T14:58:34.116Z,0.29
2024-02-26T15:01:02.169Z,0.16
2024-02-26T15:03:31.108Z,0.27
2024-02-26T15:05:58.642Z,0.38
2024-02-26T15:08:26.541Z,0.11
2024-02-26T15:10:54.111Z,0.12
2024-02-26T15:13:24.340Z,-0.05
2024-02-26T15:15:52.108Z,0.04
2024-02-26T15:18:19.953Z,0.01
2024-02-26T15:20:47.634Z,-0.09
2024-02-26T15:23:15.305Z,0.13
2024-02-26T15:25:47.173Z,0.20
2024-02-26T15:28:16.450Z,0.12
2024-02-26T15:30:44.727Z,0.01
2024-02-26T15:33:13.395Z,-0.05
2024-02-26T15:35:46.283Z,0.24
2024-02-26T15:38:16.599Z,0.09
2024-02-26T15:40:45.853Z,0.03
2024-02-26T15:43:15.439Z,0.14
2024-02-26T15:45:43.506Z,0.00
2024-02-26T15:48:11.769Z,-0.37
2024-02-26T15:50:42.457Z,0.17
2024-02-26T15:53:10.237Z,-0.01
2024-02-26T15:55:37.947Z,-0.04
2024-02-26T15:58:10.669Z,-0.20
2024-02-26T16:00:43.272Z,-0.19
2024-02-26T16:03:11.428Z,-0.11
2024-02-26T16:05:39.563Z,-0.15
2024-02-26T16:08:22.098Z,-0.16
2024-02-26T16:10:50.304Z,-0.30
2024-02-26T16:13:21.201Z,-0.26
2024-02-26T16:18:47.700Z,-0.21
2024-02-26T16:21:15.706Z,-0.44
2024-02-26T16:23:43.395Z,-0.37
2024-02-26T16:26:11.114Z,-0.19
2024-02-26T16:28:38.724Z,0.01
2024-02-26T16:31:06.449Z,0.01
2024-02-26T16:33:34.187Z,-0.43
2024-02-26T16:36:02.856Z,0.01
2024-02-26T16:38:30.590Z,-0.13
2024-02-26T16:40:58.188Z,-0.06
2024-02-26T16:43:26.156Z,-0.25
2024-02-26T16:45:54.111Z,-0.11
2024-02-26T16:48:21.856Z,0.30
2024-02-26T16:50:50.681Z,-0.20
2024-02-26T16:53:18.817Z,-0.01
2024-02-26T16:55:46.585Z,-0.30
2024-02-26T16:58:14.586Z,-0.42
2024-02-26T17:00:42.161Z,-0.65
2024-02-26T17:03:09.878Z,-0.63
2024-02-26T17:05:37.545Z,-0.45
2024-02-26T17:08:05.313Z,-0.45
2024-02-26T17:10:33.616Z,-0.50
2024-02-26T17:13:01.277Z,-0.46
2024-02-26T17:15:29.051Z,-0.80
2024-02-26T17:17:56.829Z,-0.58
2024-02-26T17:20:24.465Z,-0.47
2024-02-26T17:22:52.026Z,-0.45
2024-02-26T17:25:20.701Z,-0.56
2024-02-26T17:27:48.690Z,-0.58
2024-02-26T17:30:16.282Z,-0.48
2024-02-26T17:32:44.064Z,-0.61
2024-02-26T17:35:15.624Z,-0.45
2024-02-26T17:37:45.523Z,-0.45
2024-02-26T17:40:13.890Z,-0.39
2024-02-26T17:42:41.542Z,-0.51
2024-02-26T17:45:11.010Z,-0.88
2024-02-26T17:47:38.760Z,-0.41
2024-02-26T17:50:06.889Z,-0.43
2024-02-26T17:52:37.984Z,-0.69
2024-02-26T17:55:06.357Z,-0.75
2024-02-26T17:57:33.974Z,-0.67
2024-02-26T18:00:01.716Z,-0.67
2024-02-26T18:02:30.665Z,-0.75
2024-02-26T18:04:58.582Z,-1.01
2024-02-26T18:07:26.393Z,-1.08
2024-02-26T18:09:53.870Z,-0.77
2024-02-26T18:12:21.440Z,-0.87
2024-02-26T18:14:49.353Z,-1.10
2024-02-26T18:17:18.988Z,-0.95
2024-02-26T18:19:46.878Z,-0.86
2024-02-26T18:22:15.912Z,-0.81
2024-02-26T18:24:43.570Z,-0.99
2024-02-26T18:27:11.679Z,-0.95
2024-02-26T18:29:39.206Z,-1.11
2024-02-26T18:32:07.634Z,-1.11
2024-02-26T18:34:37.923Z,-1.42
2024-02-26T18:37:06.673Z,-1.33
2024-02-26T18:39:34.626Z,-1.03
2024-02-26T18:42:02.967Z,-1.07
2024-02-26T18:44:31.719Z,-0.92
2024-02-26T18:47:02.331Z,-1.08
2024-02-26T18:49:34.880Z,-1.16
2024-02-26T18:52:04.456Z,-1.19
2024-02-26T18:54:37.320Z,-1.20
2024-02-26T18:57:07.353Z,-1.34
2024-02-26T18:59:36.359Z,-0.88
2024-02-26T19:02:05.736Z,-1.03
2024-02-26T19:04:35.101Z,-0.88
2024-02-26T19:07:03.067Z,-1.01
2024-02-26T19:09:31.608Z,-0.93
2024-02-26T19:12:01.969Z,-0.74
2024-02-26T19:14:29.817Z,-0.80
2024-02-26T19:16:59.935Z,-0.64
2024-02-26T19:19:28.334Z,-0.94
2024-02-26T19:21:58.441Z,-1.26
2024-02-26T19:24:26.233Z,-1.21
2024-02-26T19:26:53.939Z,-1.19
2024-02-26T19:29:21.700Z,-1.23
2024-02-26T19:31:49.990Z,-0.97
2024-02-26T19:34:17.767Z,-1.06
2024-02-26T19:36:48.185Z,-1.22
2024-02-26T19:39:15.772Z,-1.16
2024-02-26T19:41:43.326Z,-1.33
2024-02-26T19:44:14.023Z,-1.59
2024-02-26T19:46:41.761Z,-1.70
2024-02-26T19:49:13.669Z,-1.33
2024-02-26T19:51:45.156Z,-1.65
2024-02-26T19:54:14.110Z,-2.00
2024-02-26T19:56:42.546Z,-1.79
2024-02-26T19:59:10.333Z,-1.76
2024-02-26T20:01:37.771Z,-2.09
2024-02-26T20:04:05.704Z,-2.14
2024-02-26T20:06:34.396Z,-1.97
2024-02-26T20:09:02.227Z,-1.94
2024-02-26T20:11:30.169Z,-1.71
2024-02-26T20:13:57.722Z,-1.67
2024-02-26T20:16:25.293Z,-1.72
2024-02-26T20:18:52.906Z,-2.17
2024-02-26T20:21:20.780Z,-2.06
2024-02-26T20:23:48.805Z,-1.94
2024-02-26T20:26:16.374Z,-1.62
2024-02-26T20:28:46.831Z,-1.98
2024-02-26T20:31:14.348Z,-2.03
2024-02-26T20:33:43.735Z,-2.00
2024-02-26T20:36:11.289Z,-1.94
2024-02-26T20:38:39.314Z,-1.86
2024-02-26T20:41:07.172Z,-2.14
2024-02-26T20:43:35.586Z,-1.92
2024-02-26T20:46:03.102Z,-2.02
2024-02-26T20:48:33.190Z,-2.06
2024-02-26T20:51:00.892Z,-2.00
2024-02-26T20:53:28.567Z,-1.95
2024-02-26T20:55:56.242Z,-2.09
2024-02-26T20:58:24.040Z,-2.12
2024-02-26T21:00:51.634Z,-2.12
2024-02-26T21:03:19.885Z,-2.18
2024-02-26T21:05:47.609Z,-2.18
2024-02-26T21:08:20.392Z,-2.22
2024-02-26T21:10:57.202Z,-2.46
2024-02-26T21:13:24.817Z,-2.35
2024-02-26T21:15:52.305Z,-2.36
2024-02-26T21:18:21.768Z,-2.17
2024-02-26T21:20:50.867Z,-2.50
2024-02-26T21:23:18.979Z,-2.14
2024-02-26T21:25:46.331Z,-2.08
2024-02-26T21:28:14.738Z,-2.36
2024-02-26T21:30:42.365Z,-2.25
2024-02-26T21:33:09.961Z,-2.22
2024-02-26T21:35:37.833Z,-2.77
2024-02-26T21:38:08.441Z,-2.39
2024-02-26T21:40:37.835Z,-2.46
2024-02-26T21:43:05.449Z,-2.09
2024-02-26T21:45:33.245Z,-2.75
2024-02-26T21:48:00.927Z,-2.12
2024-02-26T21:50:28.713Z,-2.21
2024-02-26T21:52:56.209Z,-2.13
2024-02-26T21:55:24.858Z,-2.05
2024-02-26T21:57:52.394Z,-2.32
2024-02-26T22:00:20.106Z,-2.25
2024-02-26T22:02:49.231Z,-2.58
2024-02-26T22:05:17.067Z,-2.70
2024-02-26T22:07:44.639Z,-2.37
2024-02-26T22:10:12.278Z,-2.56
2024-02-26T22:12:40.378Z,-2.54
2024-02-26T22:15:12.226Z,-2.59
2024-02-26T22:17:41.984Z,-2.76
2024-02-26T22:20:11.047Z,-2.59
2024-02-26T22:22:40.896Z,-2.33
2024-02-26T22:25:09.242Z,-2.40
2024-02-26T22:27:37.341Z,-2.46
2024-02-26T22:30:05.388Z,-2.77
2024-02-26T22:32:33.332Z,-2.73
2024-02-26T22:35:01.185Z,-2.66
2024-02-26T22:37:29.341Z,-2.45
2024-02-26T22:39:56.922Z,-2.51
2024-02-26T22:42:24.760Z,-2.52
2024-02-26T22:44:52.654Z,-2.37
2024-02-26T22:47:20.211Z,-2.60
2024-02-26T22:49:47.784Z,-2.79
2024-02-26T22:52:15.769Z,-2.57
2024-02-26T22:54:43.221Z,-2.76
2024-02-26T22:57:10.737Z,-2.84
2024-02-26T22:59:38.567Z,-2.73
2024-02-26T23:02:06.267Z,-2.70
2024-02-26T23:04:33.812Z,-2.60
2024-02-26T23:07:03.731Z,-2.52
2024-02-26T23:09:31.467Z,-2.57
2024-02-26T23:11:59.310Z,-2.84
2024-02-26T23:14:26.837Z,-2.97
2024-02-26T23:16:54.534Z,-2.95
2024-02-26T23:19:22.467Z,-2.84
2024-02-26T23:21:50.363Z,-2.61
2024-02-26T23:24:18.022Z,-2.79
2024-02-26T23:26:45.934Z,-3.04
2024-02-26T23:29:13.569Z,-3.15
2024-02-26T23:31:41.434Z,-2.98
2024-02-26T23:34:09.505Z,-2.91
2024-02-26T23:36:38.165Z,-2.95
2024-02-26T23:39:06.186Z,-3.03
2024-02-26T23:41:34.336Z,-3.10
2024-02-26T23:44:02.024Z,-2.93
2024-02-26T23:46:37.173Z,-3.22
2024-02-26T23:49:07.694Z,-3.15
2024-02-26T23:51:35.399Z,-3.24
2024-02-26T23:54:02.931Z,-3.27
2024-02-26T23:56:30.677Z,-3.13
2024-02-26T23:58:58.662Z,-3.24
